createdAt,value
2017-10-13T00:03:07.676Z,4.20
2017-10-13T00:08:24.635Z,4.50
2017-10-13T00:13:29.258Z,4.70
2017-10-13T00:18:31.153Z,4.87
2017-10-13T00:23:33.031Z,5.77
2017-10-13T00:28:34.870Z,4.87
2017-10-13T00:33:36.656Z,4.13
2017-10-13T00:38:38.646Z,3.80
2017-10-13T00:43:40.501Z,4.40
2017-10-13T00:48:42.406Z,4.50
2017-10-13T00:53:44.267Z,4.43
2017-10-13T00:58:46.788Z,3.80
2017-10-13T01:03:55.015Z,4.30
2017-10-13T01:08:57.438Z,4.53
2017-10-13T01:14:00.325Z,4.60
2017-10-13T01:19:03.514Z,4.50
2017-10-13T01:24:06.213Z,4.40
2017-10-13T01:29:08.269Z,4.50
2017-10-13T01:34:10.454Z,4.10
2017-10-13T01:39:12.561Z,4.50
2017-10-13T01:44:14.420Z,4.77
2017-10-13T01:49:16.316Z,4.87
2017-10-13T01:54:18.602Z,5.10
2017-10-13T01:59:20.657Z,4.40
2017-10-13T02:04:23.455Z,5.67
2017-10-13T02:09:25.332Z,5.10
2017-10-13T02:14:27.417Z,5.67
2017-10-13T02:19:29.320Z,5.70
2017-10-13T02:24:31.198Z,5.80
2017-10-13T02:29:33.076Z,5.67
2017-10-13T02:34:36.258Z,5.90
2017-10-13T02:39:53.471Z,5.60
2017-10-13T02:45:12.864Z,6.00
2017-10-13T02:50:32.130Z,5.90
2017-10-13T02:55:51.750Z,6.07
2017-10-13T03:01:11.351Z,5.70
2017-10-13T03:06:31.866Z,6.07
2017-10-13T03:11:45.965Z,5.60
2017-10-13T03:16:53.746Z,6.07
2017-10-13T03:22:11.363Z,6.53
2017-10-13T03:27:30.835Z,6.07
2017-10-13T03:32:50.543Z,6.03
2017-10-13T03:37:55.182Z,7.13
2017-10-13T03:42:57.623Z,6.97
2017-10-13T03:48:00.235Z,7.27
2017-10-13T03:53:03.054Z,27.03
2017-10-13T03:58:05.015Z,15.27
2017-10-13T04:03:07.068Z,55.77
2017-10-13T04:08:09.179Z,30.13
2017-10-13T04:13:11.702Z,8.53
2017-10-13T04:18:14.366Z,42.57
2017-10-13T04:23:16.449Z,42.87
2017-10-13T04:28:18.327Z,10.03
2017-10-13T04:33:20.204Z,8.40
2017-10-13T04:38:22.507Z,8.30
2017-10-13T04:43:24.794Z,8.17
2017-10-13T04:48:26.654Z,8.50
2017-10-13T04:53:28.505Z,8.07
2017-10-13T04:58:30.392Z,10.63
2017-10-13T05:03:32.844Z,9.63
2017-10-13T05:08:34.661Z,9.40
2017-10-13T05:13:36.556Z,7.93
2017-10-13T05:18:38.431Z,8.80
2017-10-13T05:23:40.310Z,8.60
2017-10-13T05:28:42.166Z,9.60
2017-10-13T05:33:44.065Z,9.53
2017-10-13T05:38:45.947Z,9.50
2017-10-13T05:43:48.028Z,10.33
2017-10-13T05:48:49.845Z,9.00
2017-10-13T05:53:52.266Z,8.43
2017-10-13T05:58:54.148Z,8.50
2017-10-13T06:03:57.274Z,7.40
2017-10-13T06:08:59.152Z,8.77
2017-10-13T06:14:00.956Z,8.10
2017-10-13T06:19:02.911Z,8.70
2017-10-13T06:24:05.237Z,7.80
2017-10-13T06:29:07.051Z,8.40
2017-10-13T06:34:08.949Z,8.47
2017-10-13T06:39:10.780Z,9.37
2017-10-13T06:44:13.217Z,9.00
2017-10-13T06:49:15.810Z,8.37
2017-10-13T06:54:18.609Z,9.00
2017-10-13T06:59:21.381Z,8.10
2017-10-13T07:04:24.003Z,8.57
2017-10-13T07:09:25.880Z,7.60
2017-10-13T07:14:27.757Z,7.50
2017-10-13T07:19:29.812Z,7.50
2017-10-13T07:24:31.717Z,6.30
2017-10-13T07:29:33.555Z,6.93
2017-10-13T07:34:35.648Z,7.70
2017-10-13T07:39:37.560Z,7.50
2017-10-13T07:44:39.431Z,7.40
2017-10-13T07:49:42.472Z,7.87
2017-10-13T07:54:44.758Z,7.30
2017-10-13T07:59:46.601Z,6.90
2017-10-13T08:04:49.110Z,7.40
2017-10-13T08:09:51.071Z,7.53
2017-10-13T08:14:53.626Z,8.00
2017-10-13T08:19:55.523Z,6.97
2017-10-13T08:24:57.475Z,7.80
2017-10-13T08:29:59.576Z,6.60
2017-10-13T08:35:01.483Z,6.90
2017-10-13T08:40:03.541Z,6.10
2017-10-13T08:45:05.445Z,6.27
2017-10-13T08:50:07.252Z,6.43
2017-10-13T08:55:09.206Z,6.50
2017-10-13T09:00:11.055Z,6.63
2017-10-13T09:05:13.156Z,6.17
2017-10-13T09:10:15.227Z,7.13
2017-10-13T09:15:17.117Z,6.80
2017-10-13T09:20:19.696Z,7.40
2017-10-13T09:25:21.559Z,6.77
2017-10-13T09:30:23.466Z,6.53
2017-10-13T09:35:25.965Z,6.97
2017-10-13T09:40:28.729Z,6.80
2017-10-13T09:45:31.314Z,6.90
2017-10-13T09:50:34.333Z,6.50
2017-10-13T09:55:36.215Z,6.43
2017-10-13T10:00:38.725Z,6.60
2017-10-13T10:05:40.565Z,7.67
2017-10-13T10:10:42.684Z,8.27
2017-10-13T10:15:44.489Z,7.50
2017-10-13T10:20:46.416Z,7.83
2017-10-13T10:25:48.292Z,7.93
2017-10-13T10:30:50.116Z,7.07
2017-10-13T10:35:52.173Z,7.07
2017-10-13T10:40:54.051Z,7.43
2017-10-13T10:45:56.473Z,8.20
2017-10-13T10:50:58.928Z,10.80
2017-10-13T10:56:02.142Z,9.10
2017-10-13T11:01:04.020Z,8.00
2017-10-13T11:06:05.868Z,8.97
2017-10-13T11:11:07.740Z,8.03
2017-10-13T11:16:09.651Z,7.80
2017-10-13T11:21:11.516Z,8.00
2017-10-13T11:26:13.585Z,7.30
2017-10-13T11:31:19.678Z,7.30
2017-10-13T11:36:23.204Z,6.60
2017-10-13T11:41:25.051Z,6.80
2017-10-13T11:46:27.166Z,6.97
2017-10-13T11:51:29.748Z,6.60
2017-10-13T11:56:31.614Z,6.40
2017-10-13T12:01:33.693Z,5.90
2017-10-13T12:06:35.596Z,6.00
2017-10-13T12:11:37.472Z,5.40
2017-10-13T12:16:39.329Z,5.90
2017-10-13T12:21:41.804Z,5.90
2017-10-13T12:26:43.687Z,5.10
2017-10-13T12:31:45.596Z,4.30
2017-10-13T12:36:47.399Z,4.80
2017-10-13T12:41:49.351Z,5.03
2017-10-13T12:46:51.201Z,4.73
2017-10-13T12:51:53.285Z,4.90
2017-10-13T12:56:55.795Z,4.97
2017-10-13T13:01:57.682Z,4.77
2017-10-13T13:06:59.539Z,4.90
2017-10-13T13:12:01.419Z,5.20
2017-10-13T13:17:03.326Z,5.40
2017-10-13T13:22:05.160Z,5.83
2017-10-13T13:27:06.991Z,5.60
2017-10-13T13:32:09.562Z,6.10
2017-10-13T13:37:11.442Z,5.60
2017-10-13T13:42:13.496Z,3.50
2017-10-13T13:47:15.399Z,4.03
2017-10-13T13:52:17.249Z,2.70
2017-10-13T13:57:19.124Z,3.23
2017-10-13T14:02:21.000Z,3.00
2017-10-13T14:07:23.111Z,3.03
2017-10-13T14:12:25.609Z,3.73
2017-10-13T14:17:28.203Z,4.00
2017-10-13T14:22:30.280Z,4.70
2017-10-13T14:27:32.093Z,4.37
2017-10-13T14:32:34.009Z,3.57
2017-10-13T14:37:35.836Z,3.73
2017-10-13T14:42:37.763Z,2.97
2017-10-13T14:47:39.631Z,3.00
2017-10-13T14:52:41.475Z,3.40
2017-10-13T14:57:43.392Z,3.13
2017-10-13T15:02:45.256Z,3.33
2017-10-13T15:07:47.747Z,3.27
2017-10-13T15:12:49.592Z,3.30
2017-10-13T15:17:51.472Z,3.50
2017-10-13T15:22:53.349Z,3.30
2017-10-13T15:33:36.588Z,3.10
2017-10-13T15:38:44.624Z,3.47
2017-10-13T15:44:03.790Z,3.10
2017-10-13T15:49:13.163Z,3.20
2017-10-13T15:54:15.042Z,3.07
2017-10-13T15:59:17.833Z,3.53
2017-10-13T16:04:20.363Z,3.40
2017-10-13T16:09:22.312Z,3.03
2017-10-13T16:14:24.640Z,3.27
2017-10-13T16:19:27.329Z,3.47
2017-10-13T16:24:29.354Z,3.60
2017-10-13T16:29:31.252Z,3.30
2017-10-13T16:34:33.116Z,3.10
2017-10-13T16:39:34.986Z,3.33
2017-10-13T16:44:38.852Z,3.10
2017-10-13T16:49:40.788Z,3.30
2017-10-13T16:54:45.291Z,3.50
2017-10-13T16:59:47.256Z,3.77
2017-10-13T17:04:49.228Z,3.13
2017-10-13T17:09:51.161Z,3.50
2017-10-13T17:14:53.065Z,4.20
2017-10-13T17:19:56.349Z,4.20
2017-10-13T17:24:58.200Z,4.90
2017-10-13T17:30:00.746Z,5.93
2017-10-13T17:35:03.014Z,5.10
2017-10-13T17:40:06.274Z,4.53
2017-10-13T17:45:08.297Z,5.20
2017-10-13T17:50:10.202Z,3.90
2017-10-13T17:55:12.064Z,5.57
2017-10-13T18:00:14.553Z,6.40
2017-10-13T18:05:16.653Z,6.50
2017-10-13T18:10:18.509Z,7.03
2017-10-13T18:15:22.849Z,6.43
2017-10-13T18:20:25.606Z,5.90
2017-10-13T18:25:27.748Z,6.10
2017-10-13T18:30:30.957Z,5.90
2017-10-13T18:35:32.935Z,5.17
2017-10-13T18:40:34.901Z,6.50
2017-10-13T19:41:07.892Z,7.27
2017-10-13T19:46:09.973Z,7.00
2017-10-13T19:51:11.855Z,7.23
2017-10-13T19:56:13.731Z,7.70
2017-10-13T20:01:15.607Z,6.23
2017-10-13T20:06:18.328Z,6.50
2017-10-13T20:11:20.389Z,6.37
2017-10-13T20:16:22.896Z,5.60
2017-10-13T20:21:24.962Z,6.30
2017-10-13T20:26:27.455Z,5.70
2017-10-13T20:31:29.333Z,5.47
2017-10-13T20:36:31.516Z,6.23
2017-10-13T20:41:33.392Z,5.10
2017-10-13T20:46:35.271Z,5.87
2017-10-13T20:51:37.364Z,5.40
2017-10-13T20:56:39.436Z,5.40
2017-10-13T21:01:41.326Z,5.90
2017-10-13T21:06:43.605Z,5.20
2017-10-13T21:11:45.690Z,5.70
2017-10-13T21:16:47.990Z,4.97
2017-10-13T21:21:50.143Z,4.37
2017-10-13T21:26:52.035Z,4.83
2017-10-13T21:31:54.119Z,4.50
2017-10-13T21:36:56.096Z,5.03
2017-10-13T21:41:57.974Z,4.70
2017-10-13T21:46:59.851Z,4.60
2017-10-13T21:52:01.933Z,4.57
2017-10-13T21:57:03.809Z,4.77
2017-10-13T22:02:05.686Z,5.03
2017-10-13T22:07:07.769Z,4.50
2017-10-13T22:12:09.851Z,4.20
2017-10-13T22:17:11.833Z,4.70
2017-10-13T22:22:14.835Z,4.90
2017-10-13T22:27:16.712Z,5.00
2017-10-13T22:32:18.691Z,5.30
2017-10-13T22:37:20.775Z,4.60
2017-10-13T22:42:22.865Z,4.40
2017-10-13T22:47:24.940Z,5.07
2017-10-13T22:52:27.127Z,4.50
2017-10-13T22:57:29.208Z,4.40
2017-10-13T23:02:31.294Z,5.33
2017-10-13T23:07:33.167Z,4.83
2017-10-13T23:12:35.248Z,4.43
2017-10-13T23:17:38.150Z,5.20
2017-10-13T23:22:40.028Z,4.63
2017-10-13T23:27:41.904Z,5.30
2017-10-13T23:32:43.783Z,4.67
2017-10-13T23:37:45.865Z,4.90
2017-10-13T23:42:47.742Z,4.37
2017-10-13T23:47:49.620Z,4.00
2017-10-13T23:52:51.497Z,3.97
2017-10-13T23:57:53.580Z,4.50
